sensor_id;sensor_type;location;lat;lon;timestamp;P1;durP1;ratioP1;P2;durP2;ratioP2
48805;SDS011;34625;47.176;27.548;2023-02-01T00:02:11;8.32;;;5.35;;
48805;SDS011;34625;47.176;27.548;2023-02-01T00:04:37;10.88;;;5.15;;
48805;SDS011;34625;47.176;27.548;2023-02-01T00:07:03;9.25;;;5.00;;
48805;SDS011;34625;47.176;27.548;2023-02-01T00:09:29;7.35;;;4.45;;
48805;SDS011;34625;47.176;27.548;2023-02-01T00:11:55;6.10;;;4.20;;
48805;SDS011;34625;47.176;27.548;2023-02-01T00:14:24;8.27;;;4.40;;
48805;SDS011;34625;47.176;27.548;2023-02-01T00:16:50;9.75;;;5.22;;
48805;SDS011;34625;47.176;27.548;2023-02-01T00:19:16;8.10;;;4.82;;
48805;SDS011;34625;47.176;27.548;2023-02-01T00:21:42;12.05;;;5.65;;
48805;SDS011;34625;47.176;27.548;2023-02-01T00:24:09;14.00;;;6.07;;
48805;SDS011;34625;47.176;27.548;2023-02-01T00:26:40;19.10;;;9.50;;
48805;SDS011;34625;47.176;27.548;2023-02-01T00:29:18;19.17;;;9.80;;
48805;SDS011;34625;47.176;27.548;2023-02-01T00:31:49;12.77;;;6.82;;
48805;SDS011;34625;47.176;27.548;2023-02-01T00:34:17;15.15;;;7.38;;
48805;SDS011;34625;47.176;27.548;2023-02-01T00:36:44;11.18;;;6.45;;
48805;SDS011;34625;47.176;27.548;2023-02-01T00:39:12;11.32;;;5.90;;
48805;SDS011;34625;47.176;27.548;2023-02-01T00:41:39;11.90;;;5.72;;
48805;SDS011;34625;47.176;27.548;2023-02-01T00:44:05;10.90;;;5.30;;
48805;SDS011;34625;47.176;27.548;2023-02-01T00:46:32;11.40;;;5.68;;
48805;SDS011;34625;47.176;27.548;2023-02-01T00:48:58;10.02;;;5.88;;
48805;SDS011;34625;47.176;27.548;2023-02-01T00:51:26;7.57;;;4.13;;
48805;SDS011;34625;47.176;27.548;2023-02-01T00:53:54;9.75;;;4.22;;
48805;SDS011;34625;47.176;27.548;2023-02-01T00:56:21;11.45;;;4.88;;
48805;SDS011;34625;47.176;27.548;2023-02-01T00:58:48;9.00;;;4.60;;
48805;SDS011;34625;47.176;27.548;2023-02-01T01:01:21;10.10;;;6.28;;
48805;SDS011;34625;47.176;27.548;2023-02-01T01:03:50;9.10;;;5.60;;
48805;SDS011;34625;47.176;27.548;2023-02-01T01:06:22;15.90;;;8.40;;
48805;SDS011;34625;47.176;27.548;2023-02-01T01:08:53;13.48;;;8.07;;
48805;SDS011;34625;47.176;27.548;2023-02-01T01:11:21;15.40;;;6.65;;
48805;SDS011;34625;47.176;27.548;2023-02-01T01:13:54;9.60;;;5.53;;
48805;SDS011;34625;47.176;27.548;2023-02-01T01:16:22;8.90;;;5.65;;
48805;SDS011;34625;47.176;27.548;2023-02-01T01:18:49;9.95;;;5.63;;
48805;SDS011;34625;47.176;27.548;2023-02-01T01:21:16;8.45;;;4.85;;
48805;SDS011;34625;47.176;27.548;2023-02-01T01:23:43;6.28;;;4.10;;
48805;SDS011;34625;47.176;27.548;2023-02-01T01:26:13;6.30;;;3.72;;
48805;SDS011;34625;47.176;27.548;2023-02-01T01:28:44;7.75;;;3.85;;
48805;SDS011;34625;47.176;27.548;2023-02-01T01:31:11;5.53;;;3.35;;
48805;SDS011;34625;47.176;27.548;2023-02-01T01:33:38;6.60;;;3.58;;
48805;SDS011;34625;47.176;27.548;2023-02-01T01:36:05;11.10;;;4.18;;
48805;SDS011;34625;47.176;27.548;2023-02-01T01:38:32;7.93;;;4.93;;
48805;SDS011;34625;47.176;27.548;2023-02-01T01:40:58;5.38;;;3.88;;
48805;SDS011;34625;47.176;27.548;2023-02-01T01:43:24;6.40;;;4.20;;
48805;SDS011;34625;47.176;27.548;2023-02-01T01:45:53;8.77;;;5.35;;
48805;SDS011;34625;47.176;27.548;2023-02-01T01:48:27;13.13;;;5.85;;
48805;SDS011;34625;47.176;27.548;2023-02-01T01:51:04;10.60;;;5.93;;
48805;SDS011;34625;47.176;27.548;2023-02-01T01:53:37;9.10;;;4.88;;
48805;SDS011;34625;47.176;27.548;2023-02-01T01:56:09;8.13;;;4.25;;
48805;SDS011;34625;47.176;27.548;2023-02-01T01:58:36;4.82;;;3.50;;
48805;SDS011;34625;47.176;27.548;2023-02-01T02:01:02;6.45;;;3.47;;
48805;SDS011;34625;47.176;27.548;2023-02-01T02:06:04;5.63;;;3.45;;
48805;SDS011;34625;47.176;27.548;2023-02-01T02:08:35;4.18;;;3.22;;
48805;SDS011;34625;47.176;27.548;2023-02-01T02:11:01;5.07;;;3.25;;
48805;SDS011;34625;47.176;27.548;2023-02-01T02:13:43;9.25;;;3.38;;
48805;SDS011;34625;47.176;27.548;2023-02-01T02:37:38;9.40;;;3.60;;
48805;SDS011;34625;47.176;27.548;2023-02-01T02:51:59;5.85;;;3.80;;
48805;SDS011;34625;47.176;27.548;2023-02-01T02:54:49;7.55;;;3.35;;
48805;SDS011;34625;47.176;27.548;2023-02-01T02:57:30;12.80;;;3.83;;
48805;SDS011;34625;47.176;27.548;2023-02-01T03:00:18;4.57;;;3.47;;
48805;SDS011;34625;47.176;27.548;2023-02-01T03:03:05;8.60;;;3.35;;
48805;SDS011;34625;47.176;27.548;2023-02-01T03:05:51;6.93;;;3.47;;
48805;SDS011;34625;47.176;27.548;2023-02-01T03:08:22;9.55;;;3.95;;
48805;SDS011;34625;47.176;27.548;2023-02-01T03:19:02;7.07;;;3.15;;
48805;SDS011;34625;47.176;27.548;2023-02-01T03:22:02;4.07;;;2.75;;
48805;SDS011;34625;47.176;27.548;2023-02-01T03:24:50;7.70;;;3.20;;
48805;SDS011;34625;47.176;27.548;2023-02-01T03:27:33;7.28;;;3.25;;
48805;SDS011;34625;47.176;27.548;2023-02-01T03:32:49;5.68;;;3.10;;
48805;SDS011;34625;47.176;27.548;2023-02-01T03:40:36;6.35;;;3.40;;
48805;SDS011;34625;47.176;27.548;2023-02-01T03:43:06;6.82;;;3.20;;
48805;SDS011;34625;47.176;27.548;2023-02-01T03:45:38;3.83;;;2.60;;
48805;SDS011;34625;47.176;27.548;2023-02-01T03:48:08;5.40;;;3.42;;
48805;SDS011;34625;47.176;27.548;2023-02-01T03:50:38;7.85;;;3.83;;
48805;SDS011;34625;47.176;27.548;2023-02-01T03:53:11;7.28;;;3.38;;
48805;SDS011;34625;47.176;27.548;2023-02-01T03:55:43;7.50;;;3.25;;
48805;SDS011;34625;47.176;27.548;2023-02-01T03:58:12;7.38;;;4.07;;
48805;SDS011;34625;47.176;27.548;2023-02-01T04:00:40;7.22;;;3.60;;
48805;SDS011;34625;47.176;27.548;2023-02-01T04:03:09;5.65;;;3.47;;
48805;SDS011;34625;47.176;27.548;2023-02-01T04:05:36;4.88;;;3.30;;
48805;SDS011;34625;47.176;27.548;2023-02-01T04:08:05;4.55;;;3.10;;
48805;SDS011;34625;47.176;27.548;2023-02-01T04:10:31;7.68;;;3.90;;
48805;SDS011;34625;47.176;27.548;2023-02-01T04:12:57;5.32;;;3.80;;
48805;SDS011;34625;47.176;27.548;2023-02-01T04:15:23;6.75;;;3.85;;
48805;SDS011;34625;47.176;27.548;2023-02-01T04:17:49;6.75;;;4.57;;
48805;SDS011;34625;47.176;27.548;2023-02-01T04:20:15;4.25;;;3.80;;
48805;SDS011;34625;47.176;27.548;2023-02-01T04:22:41;6.78;;;3.65;;
48805;SDS011;34625;47.176;27.548;2023-02-01T04:25:07;8.00;;;3.70;;
48805;SDS011;34625;47.176;27.548;2023-02-01T04:27:34;6.35;;;3.70;;
48805;SDS011;34625;47.176;27.548;2023-02-01T04:30:00;7.40;;;4.50;;
48805;SDS011;34625;47.176;27.548;2023-02-01T04:32:27;8.95;;;4.15;;
48805;SDS011;34625;47.176;27.548;2023-02-01T04:34:52;6.43;;;3.80;;
48805;SDS011;34625;47.176;27.548;2023-02-01T04:37:18;5.65;;;3.72;;
48805;SDS011;34625;47.176;27.548;2023-02-01T04:39:44;9.40;;;4.03;;
48805;SDS011;34625;47.176;27.548;2023-02-01T04:42:10;8.18;;;3.83;;
48805;SDS011;34625;47.176;27.548;2023-02-01T04:44:36;6.63;;;3.83;;
48805;SDS011;34625;47.176;27.548;2023-02-01T04:47:04;7.22;;;4.28;;
48805;SDS011;34625;47.176;27.548;2023-02-01T04:49:30;8.88;;;3.60;;
48805;SDS011;34625;47.176;27.548;2023-02-01T04:51:56;5.00;;;3.50;;
48805;SDS011;34625;47.176;27.548;2023-02-01T04:54:22;6.93;;;3.97;;
48805;SDS011;34625;47.176;27.548;2023-02-01T04:56:48;9.35;;;4.00;;
48805;SDS011;34625;47.176;27.548;2023-02-01T04:59:14;8.50;;;3.72;;
48805;SDS011;34625;47.176;27.548;2023-02-01T05:01:40;6.68;;;3.30;;
48805;SDS011;34625;47.176;27.548;2023-02-01T05:04:06;5.18;;;3.03;;
48805;SDS011;34625;47.176;27.548;2023-02-01T05:06:32;6.30;;;3.42;;
48805;SDS011;34625;47.176;27.548;2023-02-01T05:08:58;5.30;;;2.83;;
48805;SDS011;34625;47.176;27.548;2023-02-01T05:11:24;5.90;;;3.15;;
48805;SDS011;34625;47.176;27.548;2023-02-01T05:14:09;6.85;;;2.85;;
48805;SDS011;34625;47.176;27.548;2023-02-01T05:16:35;7.85;;;4.30;;
48805;SDS011;34625;47.176;27.548;2023-02-01T05:19:01;16.00;;;8.73;;
48805;SDS011;34625;47.176;27.548;2023-02-01T05:21:27;13.05;;;8.05;;
48805;SDS011;34625;47.176;27.548;2023-02-01T05:23:53;6.32;;;4.25;;
48805;SDS011;34625;47.176;27.548;2023-02-01T05:26:35;12.82;;;6.30;;
48805;SDS011;34625;47.176;27.548;2023-02-01T05:29:02;7.25;;;4.28;;
48805;SDS011;34625;47.176;27.548;2023-02-01T05:31:29;11.10;;;4.40;;
48805;SDS011;34625;47.176;27.548;2023-02-01T05:33:55;8.75;;;4.20;;
48805;SDS011;34625;47.176;27.548;2023-02-01T05:36:21;9.65;;;5.47;;
48805;SDS011;34625;47.176;27.548;2023-02-01T05:38:47;11.52;;;5.28;;
48805;SDS011;34625;47.176;27.548;2023-02-01T05:41:13;7.47;;;4.60;;
48805;SDS011;34625;47.176;27.548;2023-02-01T05:43:39;9.63;;;5.10;;
48805;SDS011;34625;47.176;27.548;2023-02-01T05:46:05;7.57;;;4.43;;
48805;SDS011;34625;47.176;27.548;2023-02-01T05:48:31;9.77;;;5.43;;
48805;SDS011;34625;47.176;27.548;2023-02-01T05:50:57;10.95;;;6.50;;
48805;SDS011;34625;47.176;27.548;2023-02-01T05:53:23;11.50;;;5.90;;
48805;SDS011;34625;47.176;27.548;2023-02-01T05:55:49;21.42;;;11.63;;
48805;SDS011;34625;47.176;27.548;2023-02-01T05:58:15;29.52;;;14.38;;
48805;SDS011;34625;47.176;27.548;2023-02-01T06:00:41;23.50;;;14.07;;
48805;SDS011;34625;47.176;27.548;2023-02-01T06:03:07;23.40;;;13.60;;
48805;SDS011;34625;47.176;27.548;2023-02-01T06:05:33;17.27;;;10.75;;
48805;SDS011;34625;47.176;27.548;2023-02-01T06:07:59;13.43;;;8.68;;
48805;SDS011;34625;47.176;27.548;2023-02-01T06:10:25;12.82;;;6.50;;
48805;SDS011;34625;47.176;27.548;2023-02-01T06:12:51;8.43;;;4.90;;
48805;SDS011;34625;47.176;27.548;2023-02-01T06:15:18;8.25;;;4.68;;
48805;SDS011;34625;47.176;27.548;2023-02-01T06:17:44;4.43;;;2.97;;
48805;SDS011;34625;47.176;27.548;2023-02-01T06:20:11;5.35;;;3.53;;
48805;SDS011;34625;47.176;27.548;2023-02-01T06:22:39;7.70;;;3.75;;
48805;SDS011;34625;47.176;27.548;2023-02-01T06:25:06;6.25;;;3.83;;
48805;SDS011;34625;47.176;27.548;2023-02-01T06:27:33;6.95;;;3.63;;
48805;SDS011;34625;47.176;27.548;2023-02-01T06:30:01;5.68;;;3.47;;
48805;SDS011;34625;47.176;27.548;2023-02-01T06:32:28;6.90;;;3.10;;
48805;SDS011;34625;47.176;27.548;2023-02-01T06:34:54;9.00;;;3.63;;
48805;SDS011;34625;47.176;27.548;2023-02-01T06:37:22;7.30;;;3.78;;
48805;SDS011;34625;47.176;27.548;2023-02-01T06:39:50;7.13;;;3.53;;
48805;SDS011;34625;47.176;27.548;2023-02-01T06:42:16;7.45;;;3.80;;
48805;SDS011;34625;47.176;27.548;2023-02-01T06:44:42;5.05;;;3.38;;
48805;SDS011;34625;47.176;27.548;2023-02-01T06:47:08;6.80;;;3.35;;
48805;SDS011;34625;47.176;27.548;2023-02-01T06:49:34;4.50;;;2.92;;
48805;SDS011;34625;47.176;27.548;2023-02-01T06:52:00;10.20;;;4.00;;
48805;SDS011;34625;47.176;27.548;2023-02-01T06:54:27;4.90;;;2.72;;
48805;SDS011;34625;47.176;27.548;2023-02-01T06:56:53;10.45;;;3.88;;
48805;SDS011;34625;47.176;27.548;2023-02-01T06:59:19;9.70;;;3.53;;
48805;SDS011;34625;47.176;27.548;2023-02-01T07:01:45;11.38;;;4.20;;
48805;SDS011;34625;47.176;27.548;2023-02-01T07:04:11;10.25;;;5.32;;
48805;SDS011;34625;47.176;27.548;2023-02-01T07:06:38;8.55;;;4.57;;
48805;SDS011;34625;47.176;27.548;2023-02-01T07:09:05;10.05;;;4.82;;
48805;SDS011;34625;47.176;27.548;2023-02-01T07:11:31;7.05;;;4.47;;
48805;SDS011;34625;47.176;27.548;2023-02-01T07:13:57;8.90;;;4.93;;
48805;SDS011;34625;47.176;27.548;2023-02-01T07:16:24;8.63;;;5.03;;
48805;SDS011;34625;47.176;27.548;2023-02-01T07:18:50;6.32;;;4.55;;
48805;SDS011;34625;47.176;27.548;2023-02-01T07:21:17;9.77;;;4.68;;
48805;SDS011;34625;47.176;27.548;2023-02-01T07:23:44;9.27;;;4.72;;
48805;SDS011;34625;47.176;27.548;2023-02-01T07:26:11;7.70;;;4.18;;
48805;SDS011;34625;47.176;27.548;2023-02-01T07:28:39;8.15;;;4.63;;
48805;SDS011;34625;47.176;27.548;2023-02-01T07:31:06;8.05;;;4.05;;
48805;SDS011;34625;47.176;27.548;2023-02-01T07:33:33;6.53;;;4.57;;
48805;SDS011;34625;47.176;27.548;2023-02-01T07:36:00;5.82;;;4.80;;
48805;SDS011;34625;47.176;27.548;2023-02-01T07:38:28;5.97;;;4.07;;
48805;SDS011;34625;47.176;27.548;2023-02-01T07:41:01;5.13;;;3.72;;
48805;SDS011;34625;47.176;27.548;2023-02-01T07:43:28;8.30;;;4.10;;
48805;SDS011;34625;47.176;27.548;2023-02-01T07:45:55;10.18;;;4.82;;
48805;SDS011;34625;47.176;27.548;2023-02-01T07:48:22;5.43;;;3.67;;
48805;SDS011;34625;47.176;27.548;2023-02-01T07:50:56;4.88;;;3.42;;
48805;SDS011;34625;47.176;27.548;2023-02-01T07:53:26;10.60;;;4.28;;
48805;SDS011;34625;47.176;27.548;2023-02-01T07:55:53;5.43;;;3.55;;
48805;SDS011;34625;47.176;27.548;2023-02-01T07:58:21;11.27;;;4.57;;
48805;SDS011;34625;47.176;27.548;2023-02-01T08:00:48;9.88;;;4.63;;
48805;SDS011;34625;47.176;27.548;2023-02-01T08:03:32;8.82;;;5.00;;
48805;SDS011;34625;47.176;27.548;2023-02-01T08:05:58;6.88;;;4.50;;
48805;SDS011;34625;47.176;27.548;2023-02-01T08:08:25;8.10;;;4.43;;
48805;SDS011;34625;47.176;27.548;2023-02-01T08:10:51;6.90;;;6.03;;
48805;SDS011;34625;47.176;27.548;2023-02-01T08:13:21;8.48;;;5.07;;
48805;SDS011;34625;47.176;27.548;2023-02-01T08:15:48;7.25;;;5.18;;
48805;SDS011;34625;47.176;27.548;2023-02-01T08:18:14;7.90;;;4.88;;
48805;SDS011;34625;47.176;27.548;2023-02-01T08:20:46;8.63;;;4.53;;
48805;SDS011;34625;47.176;27.548;2023-02-01T08:23:12;8.45;;;5.20;;
48805;SDS011;34625;47.176;27.548;2023-02-01T08:25:38;12.32;;;5.43;;
48805;SDS011;34625;47.176;27.548;2023-02-01T08:28:05;12.05;;;6.05;;
48805;SDS011;34625;47.176;27.548;2023-02-01T08:30:32;9.75;;;4.95;;
48805;SDS011;34625;47.176;27.548;2023-02-01T08:32:58;8.68;;;4.70;;
48805;SDS011;34625;47.176;27.548;2023-02-01T08:35:24;10.48;;;3.63;;
48805;SDS011;34625;47.176;27.548;2023-02-01T08:37:50;8.70;;;3.25;;
48805;SDS011;34625;47.176;27.548;2023-02-01T08:40:19;12.55;;;5.00;;
48805;SDS011;34625;47.176;27.548;2023-02-01T08:42:46;5.80;;;3.83;;
48805;SDS011;34625;47.176;27.548;2023-02-01T08:45:20;4.72;;;3.40;;
48805;SDS011;34625;47.176;27.548;2023-02-01T08:47:49;3.55;;;3.15;;
48805;SDS011;34625;47.176;27.548;2023-02-01T08:50:16;4.97;;;3.08;;
48805;SDS011;34625;47.176;27.548;2023-02-01T08:52:42;4.75;;;3.40;;
48805;SDS011;34625;47.176;27.548;2023-02-01T08:55:09;6.40;;;3.30;;
48805;SDS011;34625;47.176;27.548;2023-02-01T08:57:35;3.83;;;2.92;;
48805;SDS011;34625;47.176;27.548;2023-02-01T09:00:02;3.60;;;2.90;;
48805;SDS011;34625;47.176;27.548;2023-02-01T09:02:30;7.00;;;3.58;;
48805;SDS011;34625;47.176;27.548;2023-02-01T09:04:56;5.30;;;2.80;;
48805;SDS011;34625;47.176;27.548;2023-02-01T09:07:22;6.05;;;2.67;;
48805;SDS011;34625;47.176;27.548;2023-02-01T09:09:48;3.88;;;2.55;;
48805;SDS011;34625;47.176;27.548;2023-02-01T09:12:14;5.57;;;3.13;;
48805;SDS011;34625;47.176;27.548;2023-02-01T09:14:40;4.82;;;2.70;;
48805;SDS011;34625;47.176;27.548;2023-02-01T09:17:06;6.97;;;2.70;;
48805;SDS011;34625;47.176;27.548;2023-02-01T09:19:32;8.82;;;4.00;;
48805;SDS011;34625;47.176;27.548;2023-02-01T09:21:58;9.35;;;5.10;;
48805;SDS011;34625;47.176;27.548;2023-02-01T09:24:24;7.30;;;3.78;;
48805;SDS011;34625;47.176;27.548;2023-02-01T09:26:50;15.02;;;7.93;;
48805;SDS011;34625;47.176;27.548;2023-02-01T09:29:16;6.93;;;3.47;;
48805;SDS011;34625;47.176;27.548;2023-02-01T09:31:42;33.75;;;9.90;;
48805;SDS011;34625;47.176;27.548;2023-02-01T09:34:08;12.18;;;5.05;;
48805;SDS011;34625;47.176;27.548;2023-02-01T09:36:34;14.90;;;5.35;;
48805;SDS011;34625;47.176;27.548;2023-02-01T09:39:01;3.47;;;3.03;;
48805;SDS011;34625;47.176;27.548;2023-02-01T09:47:00;3.70;;;2.80;;
48805;SDS011;34625;47.176;27.548;2023-02-01T09:49:28;4.55;;;3.20;;
48805;SDS011;34625;47.176;27.548;2023-02-01T09:51:57;1.70;;;1.38;;
48805;SDS011;34625;47.176;27.548;2023-02-01T09:54:27;4.60;;;3.35;;
48805;SDS011;34625;47.176;27.548;2023-02-01T09:57:08;6.13;;;3.10;;
48805;SDS011;34625;47.176;27.548;2023-02-01T09:59:51;5.88;;;3.50;;
48805;SDS011;34625;47.176;27.548;2023-02-01T10:02:26;5.18;;;3.13;;
48805;SDS011;34625;47.176;27.548;2023-02-01T10:04:56;3.92;;;3.10;;
48805;SDS011;34625;47.176;27.548;2023-02-01T10:20:57;4.00;;;2.75;;
48805;SDS011;34625;47.176;27.548;2023-02-01T10:28:28;5.68;;;3.38;;
48805;SDS011;34625;47.176;27.548;2023-02-01T10:30:58;6.13;;;3.80;;
48805;SDS011;34625;47.176;27.548;2023-02-01T10:33:35;9.38;;;3.67;;
48805;SDS011;34625;47.176;27.548;2023-02-01T10:36:16;5.10;;;3.15;;
48805;SDS011;34625;47.176;27.548;2023-02-01T10:38:52;3.80;;;3.17;;
48805;SDS011;34625;47.176;27.548;2023-02-01T10:41:19;5.05;;;3.22;;
48805;SDS011;34625;47.176;27.548;2023-02-01T10:43:48;7.18;;;3.53;;
48805;SDS011;34625;47.176;27.548;2023-02-01T10:46:20;4.22;;;3.35;;
48805;SDS011;34625;47.176;27.548;2023-02-01T10:48:48;11.18;;;3.85;;
48805;SDS011;34625;47.176;27.548;2023-02-01T10:53:50;4.75;;;3.40;;
48805;SDS011;34625;47.176;27.548;2023-02-01T10:56:25;5.90;;;4.10;;
48805;SDS011;34625;47.176;27.548;2023-02-01T10:59:00;6.80;;;4.30;;
48805;SDS011;34625;47.176;27.548;2023-02-01T11:01:30;5.53;;;3.83;;
48805;SDS011;34625;47.176;27.548;2023-02-01T11:04:01;7.27;;;4.37;;
48805;SDS011;34625;47.176;27.548;2023-02-01T11:06:30;7.20;;;4.20;;
48805;SDS011;34625;47.176;27.548;2023-02-01T11:11:56;11.70;;;4.20;;
48805;SDS011;34625;47.176;27.548;2023-02-01T11:16:54;4.93;;;3.00;;
48805;SDS011;34625;47.176;27.548;2023-02-01T11:19:23;6.28;;;4.15;;
48805;SDS011;34625;47.176;27.548;2023-02-01T11:21:53;5.22;;;3.45;;
48805;SDS011;34625;47.176;27.548;2023-02-01T11:24:26;5.40;;;3.08;;
48805;SDS011;34625;47.176;27.548;2023-02-01T11:26:57;9.52;;;3.45;;
48805;SDS011;34625;47.176;27.548;2023-02-01T11:29:25;6.00;;;3.50;;
48805;SDS011;34625;47.176;27.548;2023-02-01T11:31:56;5.88;;;3.58;;
48805;SDS011;34625;47.176;27.548;2023-02-01T11:34:29;10.00;;;4.32;;
48805;SDS011;34625;47.176;27.548;2023-02-01T11:37:05;5.72;;;3.75;;
48805;SDS011;34625;47.176;27.548;2023-02-01T11:39:53;4.60;;;3.03;;
48805;SDS011;34625;47.176;27.548;2023-02-01T11:42:39;6.13;;;3.50;;
48805;SDS011;34625;47.176;27.548;2023-02-01T11:45:29;6.30;;;3.40;;
48805;SDS011;34625;47.176;27.548;2023-02-01T11:47:57;4.03;;;2.85;;
48805;SDS011;34625;47.176;27.548;2023-02-01T11:50:35;6.30;;;3.03;;
48805;SDS011;34625;47.176;27.548;2023-02-01T11:53:24;4.45;;;3.15;;
48805;SDS011;34625;47.176;27.548;2023-02-01T11:55:56;6.25;;;3.85;;
48805;SDS011;34625;47.176;27.548;2023-02-01T12:12:25;5.05;;;3.47;;
48805;SDS011;34625;47.176;27.548;2023-02-01T12:46:25;6.20;;;3.53;;
48805;SDS011;34625;47.176;27.548;2023-02-01T12:51:51;4.43;;;3.00;;
48805;SDS011;34625;47.176;27.548;2023-02-01T12:57:00;3.80;;;2.33;;
48805;SDS011;34625;47.176;27.548;2023-02-01T12:59:44;5.82;;;3.08;;
48805;SDS011;34625;47.176;27.548;2023-02-01T13:08:10;6.70;;;4.38;;
48805;SDS011;34625;47.176;27.548;2023-02-01T13:10:45;12.50;;;4.70;;
48805;SDS011;34625;47.176;27.548;2023-02-01T13:15:55;8.00;;;3.95;;
48805;SDS011;34625;47.176;27.548;2023-02-01T13:18:33;6.13;;;3.45;;
48805;SDS011;34625;47.176;27.548;2023-02-01T13:21:06;8.55;;;4.30;;
48805;SDS011;34625;47.176;27.548;2023-02-01T13:23:38;7.82;;;4.72;;
48805;SDS011;34625;47.176;27.548;2023-02-01T13:26:06;6.43;;;3.15;;
48805;SDS011;34625;47.176;27.548;2023-02-01T13:34:24;6.53;;;4.18;;
48805;SDS011;34625;47.176;27.548;2023-02-01T13:37:09;9.25;;;3.83;;
48805;SDS011;34625;47.176;27.548;2023-02-01T13:45:31;6.32;;;3.42;;
48805;SDS011;34625;47.176;27.548;2023-02-01T13:48:03;7.32;;;3.72;;
48805;SDS011;34625;47.176;27.548;2023-02-01T13:50:35;16.40;;;5.53;;
48805;SDS011;34625;47.176;27.548;2023-02-01T13:55:44;7.85;;;4.10;;
48805;SDS011;34625;47.176;27.548;2023-02-01T14:16:41;8.48;;;4.47;;
48805;SDS011;34625;47.176;27.548;2023-02-01T14:19:21;10.95;;;5.38;;
48805;SDS011;34625;47.176;27.548;2023-02-01T14:21:52;9.23;;;4.40;;
48805;SDS011;34625;47.176;27.548;2023-02-01T14:24:29;13.07;;;5.72;;
48805;SDS011;34625;47.176;27.548;2023-02-01T14:26:58;11.32;;;5.47;;
48805;SDS011;34625;47.176;27.548;2023-02-01T14:29:50;10.00;;;5.13;;
48805;SDS011;34625;47.176;27.548;2023-02-01T14:32:44;10.77;;;5.28;;
48805;SDS011;34625;47.176;27.548;2023-02-01T14:35:30;11.02;;;4.97;;
48805;SDS011;34625;47.176;27.548;2023-02-01T14:37:59;13.90;;;6.13;;
48805;SDS011;34625;47.176;27.548;2023-02-01T14:40:32;10.55;;;6.72;;
48805;SDS011;34625;47.176;27.548;2023-02-01T14:42:59;14.18;;;6.97;;
48805;SDS011;34625;47.176;27.548;2023-02-01T14:50:31;14.57;;;6.72;;
48805;SDS011;34625;47.176;27.548;2023-02-01T14:55:41;18.63;;;6.35;;
48805;SDS011;34625;47.176;27.548;2023-02-01T15:01:27;12.53;;;5.60;;
48805;SDS011;34625;47.176;27.548;2023-02-01T15:04:13;8.90;;;6.53;;
48805;SDS011;34625;47.176;27.548;2023-02-01T15:06:50;13.32;;;6.45;;
48805;SDS011;34625;47.176;27.548;2023-02-01T15:14:46;16.55;;;9.45;;
48805;SDS011;34625;47.176;27.548;2023-02-01T15:19:56;22.88;;;12.55;;
48805;SDS011;34625;47.176;27.548;2023-02-01T15:22:24;24.10;;;14.60;;
48805;SDS011;34625;47.176;27.548;2023-02-01T15:24:55;42.08;;;20.58;;
48805;SDS011;34625;47.176;27.548;2023-02-01T15:27:23;35.45;;;18.95;;
48805;SDS011;34625;47.176;27.548;2023-02-01T15:29:50;21.98;;;14.15;;
48805;SDS011;34625;47.176;27.548;2023-02-01T15:34:56;27.67;;;15.23;;
48805;SDS011;34625;47.176;27.548;2023-02-01T15:37:22;39.38;;;19.95;;
48805;SDS011;34625;47.176;27.548;2023-02-01T15:40:05;44.40;;;23.48;;
48805;SDS011;34625;47.176;27.548;2023-02-01T15:45:19;14.93;;;9.13;;
48805;SDS011;34625;47.176;27.548;2023-02-01T15:47:50;15.35;;;8.55;;
48805;SDS011;34625;47.176;27.548;2023-02-01T15:50:18;13.90;;;6.82;;
48805;SDS011;34625;47.176;27.548;2023-02-01T15:52:49;12.27;;;7.45;;
48805;SDS011;34625;47.176;27.548;2023-02-01T15:55:20;14.85;;;9.30;;
48805;SDS011;34625;47.176;27.548;2023-02-01T15:57:49;16.02;;;9.20;;
48805;SDS011;34625;47.176;27.548;2023-02-01T16:00:27;11.65;;;7.70;;
48805;SDS011;34625;47.176;27.548;2023-02-01T16:03:05;14.38;;;7.95;;
48805;SDS011;34625;47.176;27.548;2023-02-01T16:05:53;20.98;;;11.32;;
48805;SDS011;34625;47.176;27.548;2023-02-01T16:08:27;23.27;;;14.23;;
48805;SDS011;34625;47.176;27.548;2023-02-01T16:10:59;37.78;;;21.92;;
48805;SDS011;34625;47.176;27.548;2023-02-01T16:13:46;16.83;;;11.65;;
48805;SDS011;34625;47.176;27.548;2023-02-01T16:16:11;16.52;;;7.25;;
48805;SDS011;34625;47.176;27.548;2023-02-01T16:18:39;8.85;;;5.95;;
48805;SDS011;34625;47.176;27.548;2023-02-01T16:21:06;4.80;;;3.10;;
48805;SDS011;34625;47.176;27.548;2023-02-01T16:23:34;6.45;;;3.65;;
48805;SDS011;34625;47.176;27.548;2023-02-01T16:26:01;5.70;;;2.38;;
48805;SDS011;34625;47.176;27.548;2023-02-01T16:28:28;3.47;;;2.10;;
48805;SDS011;34625;47.176;27.548;2023-02-01T16:30:54;5.18;;;2.83;;
48805;SDS011;34625;47.176;27.548;2023-02-01T16:33:21;3.13;;;2.53;;
48805;SDS011;34625;47.176;27.548;2023-02-01T16:35:48;3.72;;;2.55;;
48805;SDS011;34625;47.176;27.548;2023-02-01T16:38:16;5.30;;;2.83;;
48805;SDS011;34625;47.176;27.548;2023-02-01T16:40:47;6.90;;;2.75;;
48805;SDS011;34625;47.176;27.548;2023-02-01T16:43:20;3.88;;;3.00;;
48805;SDS011;34625;47.176;27.548;2023-02-01T16:45:49;11.50;;;9.10;;
48805;SDS011;34625;47.176;27.548;2023-02-01T16:48:28;7.57;;;3.30;;
48805;SDS011;34625;47.176;27.548;2023-02-01T16:50:55;146.98;;;41.65;;
48805;SDS011;34625;47.176;27.548;2023-02-01T16:53:24;8.80;;;5.50;;
48805;SDS011;34625;47.176;27.548;2023-02-01T16:55:52;12.13;;;6.63;;
48805;SDS011;34625;47.176;27.548;2023-02-01T16:58:19;9.82;;;7.30;;
48805;SDS011;34625;47.176;27.548;2023-02-01T17:00:46;9.55;;;6.53;;
48805;SDS011;34625;47.176;27.548;2023-02-01T17:03:13;10.85;;;6.50;;
48805;SDS011;34625;47.176;27.548;2023-02-01T17:05:43;10.63;;;6.75;;
48805;SDS011;34625;47.176;27.548;2023-02-01T17:08:14;7.80;;;5.30;;
48805;SDS011;34625;47.176;27.548;2023-02-01T17:10:45;6.22;;;5.43;;
48805;SDS011;34625;47.176;27.548;2023-02-01T17:13:14;9.40;;;5.57;;
48805;SDS011;34625;47.176;27.548;2023-02-01T17:15:45;10.63;;;6.40;;
48805;SDS011;34625;47.176;27.548;2023-02-01T17:18:15;6.35;;;4.60;;
48805;SDS011;34625;47.176;27.548;2023-02-01T17:20:42;8.25;;;4.45;;
48805;SDS011;34625;47.176;27.548;2023-02-01T17:23:08;7.25;;;4.30;;
48805;SDS011;34625;47.176;27.548;2023-02-01T17:25:34;9.13;;;6.35;;
48805;SDS011;34625;47.176;27.548;2023-02-01T17:28:00;6.85;;;5.28;;
48805;SDS011;34625;47.176;27.548;2023-02-01T17:30:26;11.07;;;6.60;;
48805;SDS011;34625;47.176;27.548;2023-02-01T17:32:53;8.50;;;4.82;;
48805;SDS011;34625;47.176;27.548;2023-02-01T17:35:23;11.45;;;6.40;;
48805;SDS011;34625;47.176;27.548;2023-02-01T17:37:52;8.35;;;5.72;;
48805;SDS011;34625;47.176;27.548;2023-02-01T17:40:18;6.10;;;5.45;;
48805;SDS011;34625;47.176;27.548;2023-02-01T17:42:44;9.20;;;5.57;;
48805;SDS011;34625;47.176;27.548;2023-02-01T17:48:32;73.28;;;26.40;;
48805;SDS011;34625;47.176;27.548;2023-02-01T17:50:58;52.75;;;20.85;;
48805;SDS011;34625;47.176;27.548;2023-02-01T17:53:25;28.25;;;13.48;;
48805;SDS011;34625;47.176;27.548;2023-02-01T17:55:52;41.60;;;17.45;;
48805;SDS011;34625;47.176;27.548;2023-02-01T17:58:19;25.58;;;11.93;;
48805;SDS011;34625;47.176;27.548;2023-02-01T18:00:46;82.88;;;33.88;;
48805;SDS011;34625;47.176;27.548;2023-02-01T18:03:23;64.30;;;29.33;;
48805;SDS011;34625;47.176;27.548;2023-02-01T18:05:52;41.53;;;23.25;;
48805;SDS011;34625;47.176;27.548;2023-02-01T18:08:21;29.00;;;17.90;;